createdAt,value
2022-10-21T00:00:57.481Z,22.13
2022-10-21T00:03:45.181Z,23.62
2022-10-21T00:06:32.424Z,23.18
2022-10-21T00:09:19.605Z,24.40
2022-10-21T00:12:06.835Z,23.38
2022-10-21T00:14:56.449Z,25.72
2022-10-21T00:17:43.811Z,23.02
2022-10-21T00:20:32.707Z,23.12
2022-10-21T00:23:20.305Z,21.55
2022-10-21T00:26:07.889Z,22.40
2022-10-21T00:28:58.591Z,21.85
2022-10-21T00:31:46.072Z,22.65
2022-10-21T00:34:34.108Z,23.07
2022-10-21T00:37:40.971Z,22.32
2022-10-21T00:40:28.200Z,23.17
2022-10-21T00:43:15.373Z,24.20
2022-10-21T00:46:05.792Z,23.00
2022-10-21T00:48:56.478Z,22.82
2022-10-21T00:51:45.374Z,24.35
2022-10-21T00:54:33.443Z,23.22
2022-10-21T00:57:22.646Z,22.70
2022-10-21T01:00:10.568Z,24.02
2022-10-21T01:02:58.213Z,21.95
2022-10-21T01:05:45.962Z,20.88
2022-10-21T01:08:33.468Z,21.05
2022-10-21T01:11:22.112Z,20.65
2022-10-21T01:14:44.753Z,20.48
2022-10-21T01:17:53.275Z,20.25
2022-10-21T01:20:56.040Z,20.23
2022-10-21T01:24:14.607Z,19.62
2022-10-21T01:27:21.355Z,20.82
2022-10-21T01:30:29.970Z,21.03
2022-10-21T01:33:32.518Z,19.23
2022-10-21T01:36:23.068Z,19.40
2022-10-21T01:39:16.360Z,20.65
2022-10-21T01:42:06.525Z,21.75
2022-10-21T01:44:56.727Z,21.80
2022-10-21T01:47:50.059Z,21.20
2022-10-21T01:50:46.541Z,21.77
2022-10-21T01:53:52.537Z,21.97
2022-10-21T01:56:41.531Z,21.62
2022-10-21T01:59:31.293Z,22.35
2022-10-21T02:02:20.652Z,24.18
2022-10-21T02:05:10.962Z,22.35
2022-10-21T02:07:58.503Z,23.55
2022-10-21T02:10:49.074Z,22.45
2022-10-21T02:13:42.518Z,21.97
2022-10-21T02:16:32.884Z,20.50
2022-10-21T02:19:21.454Z,19.20
2022-10-21T02:22:10.602Z,19.23
2022-10-21T02:25:01.203Z,19.30
2022-10-21T02:27:49.893Z,19.73
2022-10-21T02:30:48.589Z,19.02
2022-10-21T02:33:55.528Z,18.80
2022-10-21T02:36:54.891Z,19.52
2022-10-21T02:39:54.447Z,19.92
2022-10-21T02:42:44.746Z,19.42
2022-10-21T02:45:33.212Z,21.37
2022-10-21T02:48:20.355Z,20.32
2022-10-21T02:51:09.130Z,19.15
2022-10-21T02:53:56.333Z,19.25
2022-10-21T02:56:43.769Z,20.57
2022-10-21T02:59:31.252Z,20.00
2022-10-21T03:02:18.268Z,20.23
2022-10-21T03:05:06.099Z,20.12
2022-10-21T03:07:53.517Z,19.10
2022-10-21T03:10:41.368Z,19.00
2022-10-21T03:13:28.549Z,17.80
2022-10-21T03:16:15.711Z,18.85
2022-10-21T03:19:02.948Z,18.62
2022-10-21T03:21:50.753Z,18.85
2022-10-21T03:24:37.853Z,20.15
2022-10-21T03:27:25.397Z,19.80
2022-10-21T03:30:12.467Z,19.50
2022-10-21T03:32:59.927Z,18.17
2022-10-21T03:35:47.476Z,19.00
2022-10-21T03:38:35.670Z,18.95
2022-10-21T03:41:23.065Z,18.20
2022-10-21T03:44:10.404Z,17.95
2022-10-21T03:46:57.791Z,17.42
2022-10-21T03:49:45.148Z,17.52
2022-10-21T03:52:32.591Z,17.20
2022-10-21T03:55:21.054Z,18.62
2022-10-21T03:58:08.436Z,17.95
2022-10-21T04:00:56.293Z,17.70
2022-10-21T04:03:43.724Z,18.85
2022-10-21T04:06:31.358Z,18.02
2022-10-21T04:09:18.832Z,17.67
2022-10-21T04:12:06.322Z,17.45
2022-10-21T04:14:53.879Z,18.12
2022-10-21T04:17:42.166Z,18.75
2022-10-21T04:20:29.219Z,18.37
2022-10-21T04:23:16.449Z,18.42
2022-10-21T04:26:04.611Z,19.82
2022-10-21T04:28:51.937Z,18.90
2022-10-21T04:31:39.190Z,19.02
2022-10-21T04:34:26.702Z,19.35
2022-10-21T04:37:14.006Z,19.12
2022-10-21T04:40:01.216Z,19.75
2022-10-21T04:42:50.060Z,19.55
2022-10-21T04:45:39.831Z,18.65
2022-10-21T04:48:27.194Z,19.35
2022-10-21T04:51:14.740Z,19.67
2022-10-21T04:54:02.225Z,20.02
2022-10-21T04:56:49.666Z,19.25
2022-10-21T04:59:37.038Z,19.48
2022-10-21T05:02:25.564Z,20.27
2022-10-21T05:05:13.293Z,19.45
2022-10-21T05:08:01.208Z,18.45
2022-10-21T05:10:48.846Z,19.05
2022-10-21T05:13:35.927Z,18.80
2022-10-21T05:16:23.943Z,17.92
2022-10-21T05:19:12.589Z,20.05
2022-10-21T05:21:59.952Z,19.25
2022-10-21T05:24:47.408Z,19.05
2022-10-21T05:27:36.039Z,20.20
2022-10-21T05:30:23.374Z,19.80
2022-10-21T05:33:11.026Z,19.62
2022-10-21T05:36:01.717Z,19.25
2022-10-21T05:38:48.919Z,19.50
2022-10-21T05:41:36.557Z,20.48
2022-10-21T05:44:24.098Z,18.92
2022-10-21T05:47:11.603Z,20.10
2022-10-21T05:49:58.856Z,18.95
2022-10-21T05:52:46.525Z,20.55
2022-10-21T05:55:33.941Z,20.02
2022-10-21T05:58:21.340Z,19.05
2022-10-21T06:01:09.100Z,19.37
2022-10-21T06:03:56.259Z,19.48
2022-10-21T06:06:43.257Z,19.87
2022-10-21T06:09:30.692Z,20.05
2022-10-21T06:12:18.134Z,22.37
2022-10-21T06:15:06.164Z,20.85
2022-10-21T06:17:53.425Z,21.82
2022-10-21T06:20:40.940Z,20.27
2022-10-21T06:23:28.562Z,22.35
2022-10-21T06:26:16.825Z,23.02
2022-10-21T06:29:04.228Z,21.80
2022-10-21T06:31:51.711Z,21.70
2022-10-21T06:34:39.708Z,43.52
2022-10-21T06:37:27.129Z,30.02
2022-10-21T06:40:14.655Z,26.35
2022-10-21T06:43:02.534Z,23.27
2022-10-21T06:45:49.714Z,22.55
2022-10-21T06:48:37.283Z,22.32
2022-10-21T06:51:26.029Z,21.60
2022-10-21T06:54:13.342Z,21.12
2022-10-21T06:57:00.636Z,20.60
2022-10-21T06:59:48.699Z,19.77
2022-10-21T07:02:36.267Z,19.42
2022-10-21T07:05:23.423Z,18.15
2022-10-21T07:08:12.708Z,17.95
2022-10-21T07:11:00.145Z,17.85
2022-10-21T07:13:47.392Z,17.75
2022-10-21T07:16:36.726Z,18.52
2022-10-21T07:19:23.947Z,18.30
2022-10-21T07:22:11.183Z,17.27
2022-10-21T07:24:58.657Z,16.82
2022-10-21T07:27:48.274Z,17.20
2022-10-21T07:30:43.656Z,17.45
2022-10-21T07:33:30.793Z,17.15
2022-10-21T07:36:21.428Z,16.57
2022-10-21T07:39:11.882Z,17.05
2022-10-21T07:41:59.570Z,17.20
2022-10-21T07:44:46.504Z,16.62
2022-10-21T07:47:34.010Z,16.62
2022-10-21T07:50:21.420Z,17.77
2022-10-21T07:53:12.690Z,17.07
2022-10-21T07:56:16.618Z,18.23
2022-10-21T07:59:07.757Z,19.75
2022-10-21T08:01:53.954Z,23.90
2022-10-21T08:04:41.432Z,24.60
2022-10-21T08:07:29.424Z,19.27
2022-10-21T08:10:17.507Z,19.05
2022-10-21T08:13:05.093Z,16.95
2022-10-21T08:15:54.307Z,16.17
2022-10-21T08:18:42.127Z,15.78
2022-10-21T08:21:31.089Z,15.45
2022-10-21T08:24:18.787Z,14.58
2022-10-21T08:27:06.938Z,14.85
2022-10-21T08:29:54.375Z,13.93
2022-10-21T08:32:42.058Z,14.95
2022-10-21T08:35:30.171Z,15.45
2022-10-21T08:38:17.406Z,15.48
2022-10-21T08:41:14.103Z,28.55
2022-10-21T08:44:09.825Z,16.20
2022-10-21T08:47:30.991Z,15.40
2022-10-21T08:50:21.556Z,14.28
2022-10-21T08:53:15.157Z,14.95
2022-10-21T08:56:08.514Z,14.70
2022-10-21T08:58:56.248Z,15.08
2022-10-21T09:01:49.342Z,14.07
2022-10-21T09:04:39.609Z,14.53
2022-10-21T09:07:35.728Z,14.38
2022-10-21T09:10:44.213Z,13.62
2022-10-21T09:13:52.809Z,13.30
2022-10-21T09:17:02.959Z,12.80
2022-10-21T09:20:11.769Z,13.58
2022-10-21T09:23:23.605Z,14.45
2022-10-21T09:26:13.816Z,12.50
2022-10-21T09:29:22.495Z,12.60
2022-10-21T09:32:24.736Z,12.28
2022-10-21T09:35:33.233Z,12.25
2022-10-21T09:38:30.931Z,13.15
2022-10-21T09:44:12.416Z,11.43
2022-10-21T09:46:59.723Z,11.75
2022-10-21T09:50:07.567Z,11.25
2022-10-21T09:52:39.903Z,10.80
2022-10-21T09:55:29.681Z,11.60
2022-10-21T09:58:40.729Z,11.38
2022-10-21T10:01:30.206Z,11.18
2022-10-21T10:04:26.806Z,10.82
2022-10-21T10:07:28.642Z,11.45
2022-10-21T10:10:35.363Z,10.80
2022-10-21T10:13:24.050Z,10.55
2022-10-21T10:16:17.819Z,10.40
2022-10-21T10:19:17.027Z,10.30
2022-10-21T10:22:15.018Z,10.70
2022-10-21T10:25:14.371Z,12.50
2022-10-21T10:28:05.033Z,11.68
2022-10-21T10:30:55.241Z,9.80
2022-10-21T10:33:45.315Z,9.08
2022-10-21T10:36:35.793Z,7.50
2022-10-21T10:39:30.453Z,7.78
2022-10-21T10:42:30.821Z,7.50
2022-10-21T10:45:22.421Z,7.08
2022-10-21T10:48:12.715Z,7.60
2022-10-21T10:50:59.862Z,7.58
2022-10-21T10:53:48.917Z,9.10
2022-10-21T10:56:54.324Z,7.03
2022-10-21T10:59:45.071Z,6.85
2022-10-21T11:02:59.950Z,8.00
2022-10-21T11:05:50.480Z,7.75
2022-10-21T11:08:44.099Z,7.28
2022-10-21T11:11:46.136Z,7.72
2022-10-21T11:14:33.258Z,8.00
2022-10-21T11:17:24.693Z,7.37
2022-10-21T11:20:23.829Z,7.72
2022-10-21T11:23:23.170Z,8.08
2022-10-21T11:26:25.728Z,6.87
2022-10-21T11:29:25.052Z,7.28
2022-10-21T11:32:24.520Z,7.42
2022-10-21T11:35:30.208Z,6.90
2022-10-21T11:38:43.234Z,6.60
2022-10-21T11:41:42.119Z,6.22
2022-10-21T11:44:38.276Z,6.17
2022-10-21T11:47:44.985Z,6.72
2022-10-21T11:50:52.086Z,6.58
2022-10-21T11:54:04.940Z,7.10
2022-10-21T11:56:55.523Z,5.83
2022-10-21T12:00:00.802Z,6.37
2022-10-21T12:03:03.341Z,6.42
2022-10-21T12:06:02.217Z,6.12
2022-10-21T12:08:55.440Z,6.08
2022-10-21T12:11:51.421Z,6.15
2022-10-21T12:14:46.991Z,6.75
2022-10-21T12:20:26.297Z,5.60
2022-10-21T12:23:16.857Z,5.62
2022-10-21T12:26:22.825Z,5.95
2022-10-21T12:29:19.122Z,4.50
2022-10-21T12:32:21.591Z,4.87
2022-10-21T12:35:17.710Z,4.85
2022-10-21T12:38:20.301Z,5.20
2022-10-21T12:41:33.231Z,5.10
2022-10-21T12:44:26.516Z,5.08
2022-10-21T12:47:35.355Z,5.17
2022-10-21T12:50:29.763Z,5.12
2022-10-21T12:53:36.655Z,4.47
2022-10-21T12:56:32.685Z,4.33
2022-10-21T12:59:32.504Z,4.45
2022-10-21T13:02:28.080Z,3.33
2022-10-21T13:05:18.187Z,3.40
2022-10-21T13:08:23.973Z,2.98
2022-10-21T13:11:13.571Z,3.60
2022-10-21T13:14:20.903Z,3.00
2022-10-21T13:17:23.177Z,3.30
2022-10-21T13:20:22.596Z,2.75
2022-10-21T13:23:19.095Z,2.60
2022-10-21T13:26:09.458Z,2.72
2022-10-21T13:29:14.016Z,2.33
2022-10-21T13:32:18.787Z,2.00
2022-10-21T13:35:21.976Z,1.90
2022-10-21T13:38:23.937Z,2.33
2022-10-21T13:41:28.282Z,2.40
2022-10-21T13:44:27.433Z,2.30
2022-10-21T13:47:30.524Z,2.30
2022-10-21T13:50:25.418Z,2.70
2022-10-21T13:53:21.963Z,2.33
2022-10-21T13:56:11.470Z,2.12
2022-10-21T13:58:58.932Z,2.08
2022-10-21T14:01:51.955Z,2.42
2022-10-21T14:04:42.705Z,2.27
2022-10-21T14:07:30.098Z,2.42
2022-10-21T14:10:18.268Z,2.25
2022-10-21T14:13:05.711Z,2.35
2022-10-21T14:15:54.173Z,2.60
2022-10-21T14:18:44.529Z,2.60
2022-10-21T14:21:34.938Z,2.52
2022-10-21T14:24:28.482Z,2.35
2022-10-21T14:27:23.021Z,2.60
2022-10-21T14:30:13.378Z,2.50
2022-10-21T14:33:03.944Z,2.72
2022-10-21T14:36:09.496Z,2.47
2022-10-21T14:39:00.462Z,2.70
2022-10-21T14:41:49.763Z,3.20
2022-10-21T14:44:37.156Z,2.50
2022-10-21T14:47:28.549Z,2.85
2022-10-21T14:50:24.760Z,2.62
2022-10-21T14:53:20.832Z,2.73
2022-10-21T14:56:09.733Z,3.40
2022-10-21T14:58:59.976Z,2.90
2022-10-21T15:01:47.424Z,3.47
2022-10-21T15:04:52.646Z,3.62
2022-10-21T15:07:41.364Z,3.67
2022-10-21T15:10:31.637Z,3.37
2022-10-21T15:13:20.013Z,3.45
2022-10-21T15:16:09.996Z,3.40
2022-10-21T15:18:58.439Z,4.00
2022-10-21T15:21:54.856Z,3.55
2022-10-21T15:24:44.746Z,3.85
2022-10-21T15:27:36.917Z,3.60
2022-10-21T15:30:24.416Z,3.83
2022-10-21T15:33:13.052Z,3.62
2022-10-21T15:36:08.564Z,4.08
2022-10-21T15:38:55.858Z,4.00
2022-10-21T15:41:43.770Z,4.15
2022-10-21T15:44:32.833Z,5.53
2022-10-21T15:47:20.631Z,5.20
2022-10-21T15:50:19.199Z,3.95
2022-10-21T15:53:06.466Z,3.45
2022-10-21T15:55:54.793Z,3.80
2022-10-21T15:58:42.688Z,3.35
2022-10-21T16:01:29.901Z,3.20
2022-10-21T16:04:17.211Z,3.10
2022-10-21T16:07:07.973Z,3.42
2022-10-21T16:09:55.023Z,3.20
2022-10-21T16:12:42.274Z,3.45
2022-10-21T16:15:30.254Z,3.37
2022-10-21T16:18:17.608Z,3.58
2022-10-21T16:21:04.618Z,4.00
2022-10-21T16:23:53.114Z,3.55
2022-10-21T16:26:43.522Z,3.80
2022-10-21T16:29:30.930Z,3.72
2022-10-21T16:32:18.381Z,4.22
2022-10-21T16:35:05.980Z,5.00
2022-10-21T16:37:53.768Z,4.90
2022-10-21T16:40:41.121Z,4.67
2022-10-21T16:43:31.056Z,5.00
2022-10-21T16:46:33.612Z,5.50
2022-10-21T16:49:26.193Z,5.15
2022-10-21T16:52:14.234Z,4.97
2022-10-21T16:55:02.472Z,5.83
2022-10-21T16:57:49.688Z,5.83
2022-10-21T17:00:37.245Z,5.58
2022-10-21T17:03:24.849Z,5.12
2022-10-21T17:06:19.799Z,5.30
2022-10-21T17:09:07.401Z,5.83
2022-10-21T17:11:54.707Z,5.67
2022-10-21T17:14:41.710Z,5.17
2022-10-21T17:17:29.200Z,5.47
2022-10-21T17:20:16.652Z,4.47
2022-10-21T17:23:04.312Z,4.58
2022-10-21T17:25:51.872Z,4.50
2022-10-21T17:28:39.386Z,4.50
2022-10-21T17:31:31.477Z,4.67
2022-10-21T17:34:27.848Z,4.58
2022-10-21T17:37:15.377Z,4.95
2022-10-21T17:40:03.045Z,4.65
2022-10-21T17:42:51.053Z,4.10
2022-10-21T17:45:38.766Z,4.42
2022-10-21T17:48:26.216Z,4.47
2022-10-21T17:51:13.512Z,5.80
2022-10-21T17:54:00.999Z,5.03
2022-10-21T17:56:51.176Z,4.15
2022-10-21T17:59:38.346Z,4.55
2022-10-21T18:02:28.589Z,4.37
2022-10-21T18:05:15.903Z,4.75
2022-10-21T18:08:03.370Z,4.53
2022-10-21T18:10:55.514Z,4.42
2022-10-21T18:13:44.085Z,4.70
2022-10-21T18:16:31.380Z,4.28
2022-10-21T18:19:18.830Z,5.00
2022-10-21T18:22:06.510Z,4.92
2022-10-21T18:24:53.776Z,4.72
2022-10-21T18:27:42.040Z,4.50
2022-10-21T18:30:29.796Z,4.70
2022-10-21T18:33:16.993Z,4.62
2022-10-21T18:36:12.121Z,4.42
2022-10-21T18:39:00.538Z,4.80
2022-10-21T18:41:47.915Z,5.22
2022-10-21T18:44:35.007Z,5.28
2022-10-21T18:47:22.290Z,5.08
2022-10-21T18:50:10.971Z,5.67
2022-10-21T18:52:59.222Z,5.75
2022-10-21T18:55:46.391Z,5.47
2022-10-21T18:58:34.514Z,5.72
2022-10-21T19:01:23.858Z,5.90
2022-10-21T19:06:58.691Z,5.12
2022-10-21T19:09:46.816Z,5.37
2022-10-21T19:12:34.210Z,4.83
2022-10-21T19:15:21.969Z,4.58
2022-10-21T19:18:12.453Z,5.35
2022-10-21T19:21:00.038Z,5.47
2022-10-21T19:23:47.582Z,5.30
2022-10-21T19:26:36.890Z,5.87
2022-10-21T19:29:25.531Z,5.90
2022-10-21T19:32:16.008Z,6.50
2022-10-21T19:35:03.576Z,5.47
2022-10-21T19:37:56.671Z,7.17
2022-10-21T19:40:42.619Z,7.75
2022-10-21T19:43:30.361Z,10.72
2022-10-21T19:46:23.463Z,7.58
2022-10-21T19:49:11.110Z,6.60
2022-10-21T19:51:58.697Z,6.15
2022-10-21T19:54:46.614Z,5.78
2022-10-21T19:57:34.452Z,8.00
2022-10-21T20:00:21.974Z,6.15
2022-10-21T20:03:09.672Z,6.45
2022-10-21T20:05:57.654Z,6.42
2022-10-21T20:08:45.028Z,6.97
2022-10-21T20:11:32.548Z,6.72
2022-10-21T20:14:20.020Z,6.28
2022-10-21T20:17:07.601Z,6.12
2022-10-21T20:19:55.067Z,7.00
2022-10-21T20:22:42.959Z,7.72
2022-10-21T20:25:30.559Z,9.50
2022-10-21T20:28:18.581Z,8.68
2022-10-21T20:31:11.457Z,8.40
2022-10-21T20:33:58.718Z,7.62
2022-10-21T20:36:46.177Z,7.97
2022-10-21T20:39:33.236Z,8.55
2022-10-21T20:42:20.661Z,7.70
2022-10-21T20:45:08.319Z,7.75
2022-10-21T20:47:55.440Z,7.75
2022-10-21T20:50:42.868Z,8.28
2022-10-21T20:53:31.784Z,10.50
2022-10-21T20:56:19.757Z,10.13
2022-10-21T20:59:08.465Z,9.28
2022-10-21T21:01:56.017Z,9.50
2022-10-21T21:04:43.338Z,9.38
2022-10-21T21:07:30.791Z,8.88
2022-10-21T21:10:18.316Z,7.37
2022-10-21T21:13:06.049Z,7.95
2022-10-21T21:15:55.177Z,8.50
2022-10-21T21:18:44.079Z,8.70
2022-10-21T21:21:33.501Z,8.50
2022-10-21T21:24:20.544Z,9.03
2022-10-21T21:27:07.861Z,9.15
2022-10-21T21:29:55.072Z,9.45
2022-10-21T21:32:42.573Z,9.35
2022-10-21T21:35:30.165Z,9.63
2022-10-21T21:38:17.591Z,9.18
2022-10-21T21:41:08.085Z,8.78
2022-10-21T21:43:56.642Z,9.58
2022-10-21T21:46:44.052Z,9.03
2022-10-21T21:49:31.432Z,8.73
2022-10-21T21:52:18.848Z,8.48
2022-10-21T21:55:06.605Z,9.50
2022-10-21T21:57:53.933Z,8.78
2022-10-21T22:00:41.134Z,9.53
2022-10-21T22:03:28.270Z,8.28
2022-10-21T22:06:17.767Z,11.60
2022-10-21T22:09:11.145Z,8.58
2022-10-21T22:11:59.353Z,8.13
2022-10-21T22:14:46.824Z,8.93
2022-10-21T22:17:34.465Z,8.78
2022-10-21T22:20:22.757Z,8.35
2022-10-21T22:23:09.651Z,8.10
2022-10-21T22:25:58.739Z,8.95
2022-10-21T22:28:47.197Z,7.78
2022-10-21T22:31:34.539Z,7.35
2022-10-21T22:34:21.709Z,6.85
2022-10-21T22:37:09.097Z,6.90
2022-10-21T22:39:56.563Z,6.22
2022-10-21T22:45:32.876Z,6.17
2022-10-21T22:48:20.219Z,6.22
2022-10-21T22:51:07.730Z,6.60
2022-10-21T22:53:56.390Z,6.30
2022-10-21T22:56:44.213Z,6.53
2022-10-21T22:59:31.647Z,5.80
2022-10-21T23:02:18.883Z,5.37
2022-10-21T23:05:06.403Z,5.92
2022-10-21T23:07:53.933Z,5.83
2022-10-21T23:10:41.231Z,5.60
2022-10-21T23:13:29.458Z,5.55
2022-10-21T23:16:17.077Z,5.62
2022-10-21T23:19:04.613Z,5.67
2022-10-21T23:21:51.605Z,5.80
2022-10-21T23:24:39.156Z,5.90
2022-10-21T23:27:29.539Z,5.65
2022-10-21T23:30:17.068Z,5.28
2022-10-21T23:33:04.249Z,4.95
2022-10-21T23:35:51.886Z,5.35
2022-10-21T23:38:39.511Z,5.35
2022-10-21T23:41:26.923Z,5.42
2022-10-21T23:44:15.898Z,4.70
2022-10-21T23:47:03.021Z,5.42
2022-10-21T23:49:50.340Z,5.75
2022-10-21T23:52:38.931Z,5.25
2022-10-21T23:55:27.231Z,5.83
2022-10-21T23:58:14.473Z,5.72
